Terminal Aerodrome Forecast
Issued by NWS Rapid City, SD

Home | Current Version | Previous Version | Text Only | Print | Product List | Glossary Off
Versions: 1 2 3 4 5 6 7 8 9 10 11 12 13 14 15 16 17 18 19 20 21 22 23 24 25

000
FTUS43 KUNR 222320
TAFRAP
TAF
KRAP 222320Z 2300/2324 34013KT P6SM VCTS SCT090CB BKN150
     FM230100 34011KT P6SM SCT100 BKN150
     FM232000 35018G28KT P6SM BKN035=

USA.gov is the U.S. government's official web portal to all federal, state and local government web resources and services.